sensor_id;sensor_type;location;lat;lon;timestamp;pressure;altitude;pressure_sealevel;temperature;humidity
14204;BME280;7185;51.854;6.622;2022-09-03T00:00:40;100918.13;;;19.94;42.90
14204;BME280;7185;51.854;6.622;2022-09-03T00:03:19;100912.22;;;19.89;43.10
14204;BME280;7185;51.854;6.622;2022-09-03T00:06:02;100909.16;;;19.79;43.00
14204;BME280;7185;51.854;6.622;2022-09-03T00:08:41;100919.63;;;19.47;43.24
14204;BME280;7185;51.854;6.622;2022-09-03T00:11:18;100916.28;;;19.61;43.44
14204;BME280;7185;51.854;6.622;2022-09-03T00:13:58;100922.44;;;19.62;43.71
14204;BME280;7185;51.854;6.622;2022-09-03T00:16:42;100917.56;;;19.52;43.73
14204;BME280;7185;51.854;6.622;2022-09-03T00:19:16;100911.41;;;19.52;43.58
14204;BME280;7185;51.854;6.622;2022-09-03T00:21:51;100917.44;;;19.55;43.85
14204;BME280;7185;51.854;6.622;2022-09-03T00:24:28;100915.19;;;19.48;43.65
14204;BME280;7185;51.854;6.622;2022-09-03T00:27:05;100918.78;;;19.47;43.75
14204;BME280;7185;51.854;6.622;2022-09-03T00:29:47;100915.56;;;19.57;43.70
14204;BME280;7185;51.854;6.622;2022-09-03T00:32:27;100925.50;;;19.54;43.85
14204;BME280;7185;51.854;6.622;2022-09-03T00:35:01;100931.75;;;19.53;43.67
14204;BME280;7185;51.854;6.622;2022-09-03T00:37:34;100931.59;;;19.38;43.91
14204;BME280;7185;51.854;6.622;2022-09-03T00:40:12;100926.50;;;19.34;44.17
14204;BME280;7185;51.854;6.622;2022-09-03T00:42:54;100931.66;;;19.37;44.00
14204;BME280;7185;51.854;6.622;2022-09-03T00:45:32;100925.34;;;19.39;44.16
14204;BME280;7185;51.854;6.622;2022-09-03T00:48:16;100930.47;;;19.25;44.56
14204;BME280;7185;51.854;6.622;2022-09-03T00:51:09;100921.09;;;19.18;44.32
14204;BME280;7185;51.854;6.622;2022-09-03T00:53:52;100920.16;;;19.19;44.70
14204;BME280;7185;51.854;6.622;2022-09-03T00:56:33;100917.41;;;19.20;44.59
14204;BME280;7185;51.854;6.622;2022-09-03T00:59:24;100913.09;;;19.18;44.59
14204;BME280;7185;51.854;6.622;2022-09-03T01:02:05;100915.44;;;19.06;44.78
14204;BME280;7185;51.854;6.622;2022-09-03T01:04:52;100917.31;;;19.04;45.07
14204;BME280;7185;51.854;6.622;2022-09-03T01:07:32;100912.72;;;19.08;44.79
14204;BME280;7185;51.854;6.622;2022-09-03T01:10:12;100912.28;;;18.98;45.04
14204;BME280;7185;51.854;6.622;2022-09-03T01:12:51;100913.94;;;18.82;45.25
14204;BME280;7185;51.854;6.622;2022-09-03T01:15:29;100919.09;;;18.85;45.18
14204;BME280;7185;51.854;6.622;2022-09-03T01:18:12;100916.81;;;18.96;45.25
14204;BME280;7185;51.854;6.622;2022-09-03T01:21:02;100921.59;;;18.88;45.56
14204;BME280;7185;51.854;6.622;2022-09-03T01:24:03;100917.91;;;18.92;45.58
14204;BME280;7185;51.854;6.622;2022-09-03T01:27:01;100919.59;;;18.93;45.74
14204;BME280;7185;51.854;6.622;2022-09-03T01:29:42;100927.13;;;18.83;45.38
14204;BME280;7185;51.854;6.622;2022-09-03T01:32:25;100925.34;;;18.84;45.56
14204;BME280;7185;51.854;6.622;2022-09-03T01:35:04;100921.41;;;18.73;45.65
14204;BME280;7185;51.854;6.622;2022-09-03T01:37:50;100925.34;;;18.84;46.12
14204;BME280;7185;51.854;6.622;2022-09-03T01:43:56;100931.38;;;18.68;45.84
14204;BME280;7185;51.854;6.622;2022-09-03T01:46:44;100924.63;;;18.61;45.90
14204;BME280;7185;51.854;6.622;2022-09-03T01:49:39;100920.13;;;18.63;46.01
14204;BME280;7185;51.854;6.622;2022-09-03T01:52:20;100919.97;;;18.66;45.86
14204;BME280;7185;51.854;6.622;2022-09-03T01:55:08;100917.75;;;18.57;46.21
14204;BME280;7185;51.854;6.622;2022-09-03T01:57:54;100911.78;;;18.52;46.04
14204;BME280;7185;51.854;6.622;2022-09-03T02:00:56;100915.53;;;18.47;46.38
14204;BME280;7185;51.854;6.622;2022-09-03T02:03:45;100918.59;;;18.38;46.44
14204;BME280;7185;51.854;6.622;2022-09-03T02:06:22;100912.44;;;18.38;46.45
14204;BME280;7185;51.854;6.622;2022-09-03T02:09:10;100919.88;;;18.29;46.99
14204;BME280;7185;51.854;6.622;2022-09-03T02:11:54;100918.31;;;18.44;46.51
14204;BME280;7185;51.854;6.622;2022-09-03T02:14:34;100923.34;;;18.31;46.65
14204;BME280;7185;51.854;6.622;2022-09-03T02:17:20;100917.59;;;18.22;46.98
14204;BME280;7185;51.854;6.622;2022-09-03T02:20:01;100916.00;;;18.18;46.84
14204;BME280;7185;51.854;6.622;2022-09-03T02:22:41;100922.84;;;18.03;47.30
14204;BME280;7185;51.854;6.622;2022-09-03T02:25:31;100922.41;;;18.12;47.35
14204;BME280;7185;51.854;6.622;2022-09-03T02:31:03;100919.13;;;18.07;46.94
14204;BME280;7185;51.854;6.622;2022-09-03T02:33:44;100913.53;;;18.13;47.46
14204;BME280;7185;51.854;6.622;2022-09-03T02:36:28;100918.66;;;17.97;47.59
14204;BME280;7185;51.854;6.622;2022-09-03T02:39:21;100908.78;;;18.00;47.53
14204;BME280;7185;51.854;6.622;2022-09-03T02:42:05;100911.25;;;18.05;47.58
14204;BME280;7185;51.854;6.622;2022-09-03T02:44:52;100916.09;;;17.95;47.58
14204;BME280;7185;51.854;6.622;2022-09-03T02:47:39;100914.16;;;17.99;47.72
14204;BME280;7185;51.854;6.622;2022-09-03T02:50:32;100908.69;;;17.81;47.82
14204;BME280;7185;51.854;6.622;2022-09-03T02:53:25;100903.72;;;17.94;47.75
14204;BME280;7185;51.854;6.622;2022-09-03T02:56:08;100901.41;;;17.87;47.83
14204;BME280;7185;51.854;6.622;2022-09-03T02:59:01;100910.94;;;17.91;47.72
14204;BME280;7185;51.854;6.622;2022-09-03T03:01:38;100910.63;;;17.98;47.63
14204;BME280;7185;51.854;6.622;2022-09-03T03:04:16;100903.00;;;17.91;47.99
14204;BME280;7185;51.854;6.622;2022-09-03T03:06:55;100906.97;;;17.80;47.75
14204;BME280;7185;51.854;6.622;2022-09-03T03:09:32;100904.84;;;17.89;47.98
14204;BME280;7185;51.854;6.622;2022-09-03T03:12:25;100904.41;;;17.79;48.02
14204;BME280;7185;51.854;6.622;2022-09-03T03:15:08;100900.47;;;17.67;47.97
14204;BME280;7185;51.854;6.622;2022-09-03T03:17:48;100896.72;;;17.73;48.58
14204;BME280;7185;51.854;6.622;2022-09-03T03:20:54;100901.66;;;17.60;48.22
14204;BME280;7185;51.854;6.622;2022-09-03T03:23:33;100901.81;;;17.36;48.97
14204;BME280;7185;51.854;6.622;2022-09-03T03:26:23;100903.38;;;17.40;49.08
14204;BME280;7185;51.854;6.622;2022-09-03T03:28:57;100903.53;;;17.37;49.26
14204;BME280;7185;51.854;6.622;2022-09-03T03:31:37;100894.78;;;17.35;49.19
14204;BME280;7185;51.854;6.622;2022-09-03T03:34:10;100907.09;;;17.36;49.33
14204;BME280;7185;51.854;6.622;2022-09-03T03:36:57;100902.91;;;17.30;49.25
14204;BME280;7185;51.854;6.622;2022-09-03T03:39:49;100900.91;;;17.35;49.34
14204;BME280;7185;51.854;6.622;2022-09-03T03:42:26;100902.81;;;17.11;49.81
14204;BME280;7185;51.854;6.622;2022-09-03T03:45:08;100909.31;;;17.25;49.89
14204;BME280;7185;51.854;6.622;2022-09-03T03:47:59;100898.72;;;17.25;49.83
14204;BME280;7185;51.854;6.622;2022-09-03T03:50:41;100900.81;;;17.16;49.72
14204;BME280;7185;51.854;6.622;2022-09-03T03:53:13;100902.69;;;17.14;49.72
14204;BME280;7185;51.854;6.622;2022-09-03T03:55:54;100898.97;;;17.18;49.70
14204;BME280;7185;51.854;6.622;2022-09-03T03:58:40;100904.28;;;17.18;50.00
14204;BME280;7185;51.854;6.622;2022-09-03T04:01:25;100896.31;;;17.18;49.95
14204;BME280;7185;51.854;6.622;2022-09-03T04:03:58;100904.53;;;17.12;49.91
14204;BME280;7185;51.854;6.622;2022-09-03T04:06:44;100895.84;;;17.09;49.84
14204;BME280;7185;51.854;6.622;2022-09-03T04:09:35;100897.91;;;17.02;50.34
14204;BME280;7185;51.854;6.622;2022-09-03T04:12:16;100895.47;;;16.96;50.52
14204;BME280;7185;51.854;6.622;2022-09-03T04:14:57;100900.75;;;16.96;50.73
14204;BME280;7185;51.854;6.622;2022-09-03T04:17:39;100896.50;;;16.92;50.92
14204;BME280;7185;51.854;6.622;2022-09-03T04:20:22;100889.25;;;16.97;50.42
14204;BME280;7185;51.854;6.622;2022-09-03T04:22:54;100898.47;;;16.86;50.49
14204;BME280;7185;51.854;6.622;2022-09-03T04:25:26;100887.75;;;16.89;50.91
14204;BME280;7185;51.854;6.622;2022-09-03T04:28:00;100888.47;;;16.71;51.28
14204;BME280;7185;51.854;6.622;2022-09-03T04:30:49;100891.19;;;16.69;51.37
14204;BME280;7185;51.854;6.622;2022-09-03T04:33:23;100882.03;;;16.78;51.24
14204;BME280;7185;51.854;6.622;2022-09-03T04:36:02;100881.28;;;16.75;51.16
14204;BME280;7185;51.854;6.622;2022-09-03T04:38:36;100880.59;;;16.92;50.62
14204;BME280;7185;51.854;6.622;2022-09-03T04:41:10;100886.41;;;16.79;51.10
14204;BME280;7185;51.854;6.622;2022-09-03T04:43:42;100882.03;;;16.78;51.10
14204;BME280;7185;51.854;6.622;2022-09-03T04:46:15;100880.28;;;16.77;51.20
14204;BME280;7185;51.854;6.622;2022-09-03T04:48:47;100882.31;;;16.70;51.44
14204;BME280;7185;51.854;6.622;2022-09-03T04:51:21;100887.44;;;16.75;51.22
14204;BME280;7185;51.854;6.622;2022-09-03T04:53:55;100882.50;;;16.66;51.49
14204;BME280;7185;51.854;6.622;2022-09-03T04:56:28;100890.97;;;16.76;51.33
14204;BME280;7185;51.854;6.622;2022-09-03T04:59:02;100880.66;;;16.68;51.26
14204;BME280;7185;51.854;6.622;2022-09-03T05:01:37;100884.25;;;16.67;51.48
14204;BME280;7185;51.854;6.622;2022-09-03T05:04:09;100882.78;;;16.58;51.65
14204;BME280;7185;51.854;6.622;2022-09-03T05:06:40;100884.34;;;16.64;51.74
14204;BME280;7185;51.854;6.622;2022-09-03T05:09:12;100885.41;;;16.60;51.98
14204;BME280;7185;51.854;6.622;2022-09-03T05:11:44;100883.25;;;16.69;51.53
14204;BME280;7185;51.854;6.622;2022-09-03T05:14:16;100886.16;;;16.63;51.68
14204;BME280;7185;51.854;6.622;2022-09-03T05:16:49;100879.22;;;16.59;51.73
14204;BME280;7185;51.854;6.622;2022-09-03T05:19:20;100887.25;;;16.57;52.01
14204;BME280;7185;51.854;6.622;2022-09-03T05:21:52;100881.47;;;16.70;51.95
14204;BME280;7185;51.854;6.622;2022-09-03T05:24:24;100884.59;;;16.57;51.92
14204;BME280;7185;51.854;6.622;2022-09-03T05:26:58;100883.59;;;16.60;52.16
14204;BME280;7185;51.854;6.622;2022-09-03T05:29:30;100893.88;;;16.68;51.90
14204;BME280;7185;51.854;6.622;2022-09-03T05:32:03;100892.28;;;16.64;52.00
14204;BME280;7185;51.854;6.622;2022-09-03T05:34:36;100885.41;;;16.60;52.21
14204;BME280;7185;51.854;6.622;2022-09-03T05:37:11;100889.56;;;16.65;52.23
14204;BME280;7185;51.854;6.622;2022-09-03T05:39:43;100886.91;;;16.67;52.09
14204;BME280;7185;51.854;6.622;2022-09-03T05:42:14;100888.25;;;16.77;52.07
14204;BME280;7185;51.854;6.622;2022-09-03T05:44:46;100888.91;;;16.82;51.85
14204;BME280;7185;51.854;6.622;2022-09-03T05:47:20;100894.56;;;16.97;51.76
14204;BME280;7185;51.854;6.622;2022-09-03T05:49:51;100888.81;;;17.08;51.78
14204;BME280;7185;51.854;6.622;2022-09-03T05:52:23;100892.09;;;17.14;51.38
14204;BME280;7185;51.854;6.622;2022-09-03T05:54:54;100889.19;;;17.20;51.17
14204;BME280;7185;51.854;6.622;2022-09-03T05:57:26;100898.47;;;17.31;50.98
14204;BME280;7185;51.854;6.622;2022-09-03T05:59:58;100900.88;;;17.37;50.97
14204;BME280;7185;51.854;6.622;2022-09-03T06:02:32;100895.63;;;17.35;50.77
14204;BME280;7185;51.854;6.622;2022-09-03T06:05:04;100896.25;;;17.42;51.12
14204;BME280;7185;51.854;6.622;2022-09-03T06:07:37;100901.66;;;17.39;50.92
14204;BME280;7185;51.854;6.622;2022-09-03T06:10:09;100899.28;;;17.53;50.71
14204;BME280;7185;51.854;6.622;2022-09-03T06:12:42;100904.47;;;17.57;50.39
14204;BME280;7185;51.854;6.622;2022-09-03T06:15:19;100905.78;;;17.67;50.21
14204;BME280;7185;51.854;6.622;2022-09-03T06:17:51;100901.81;;;17.77;49.67
14204;BME280;7185;51.854;6.622;2022-09-03T06:20:23;100905.47;;;17.95;49.81
14204;BME280;7185;51.854;6.622;2022-09-03T06:22:57;100904.19;;;17.83;49.71
14204;BME280;7185;51.854;6.622;2022-09-03T06:25:28;100908.56;;;17.84;49.56
14204;BME280;7185;51.854;6.622;2022-09-03T06:28:01;100907.78;;;18.03;49.56
14204;BME280;7185;51.854;6.622;2022-09-03T06:30:33;100908.94;;;18.16;49.26
14204;BME280;7185;51.854;6.622;2022-09-03T06:33:06;100917.06;;;18.13;49.66
14204;BME280;7185;51.854;6.622;2022-09-03T06:35:38;100910.69;;;18.18;49.38
14204;BME280;7185;51.854;6.622;2022-09-03T06:38:11;100902.94;;;18.32;49.24
14204;BME280;7185;51.854;6.622;2022-09-03T06:40:43;100907.84;;;18.41;48.73
14204;BME280;7185;51.854;6.622;2022-09-03T06:43:17;100906.56;;;18.50;48.63
14204;BME280;7185;51.854;6.622;2022-09-03T06:45:53;100911.06;;;18.67;48.81
14204;BME280;7185;51.854;6.622;2022-09-03T06:48:28;100902.38;;;18.83;48.49
14204;BME280;7185;51.854;6.622;2022-09-03T06:51:02;100905.53;;;18.91;47.97
14204;BME280;7185;51.854;6.622;2022-09-03T06:53:35;100906.19;;;18.96;47.82
14204;BME280;7185;51.854;6.622;2022-09-03T06:56:09;100905.84;;;19.21;47.52
14204;BME280;7185;51.854;6.622;2022-09-03T06:58:42;100908.06;;;19.31;47.33
14204;BME280;7185;51.854;6.622;2022-09-03T07:01:16;100906.31;;;19.47;47.32
14204;BME280;7185;51.854;6.622;2022-09-03T07:03:53;100908.44;;;19.58;46.51
14204;BME280;7185;51.854;6.622;2022-09-03T07:06:27;100907.97;;;19.50;46.26
14204;BME280;7185;51.854;6.622;2022-09-03T07:08:59;100910.72;;;19.48;46.68
14204;BME280;7185;51.854;6.622;2022-09-03T07:11:31;100904.06;;;19.74;46.18
14204;BME280;7185;51.854;6.622;2022-09-03T07:14:05;100902.94;;;19.79;45.74
14204;BME280;7185;51.854;6.622;2022-09-03T07:16:37;100903.88;;;19.78;46.27
14204;BME280;7185;51.854;6.622;2022-09-03T07:19:10;100902.41;;;20.07;46.00
14204;BME280;7185;51.854;6.622;2022-09-03T07:21:42;100895.03;;;20.28;45.37
14204;BME280;7185;51.854;6.622;2022-09-03T07:24:15;100894.69;;;20.18;44.64
14204;BME280;7185;51.854;6.622;2022-09-03T07:26:47;100896.63;;;20.64;45.34
14204;BME280;7185;51.854;6.622;2022-09-03T07:29:19;100900.66;;;20.72;43.88
14204;BME280;7185;51.854;6.622;2022-09-03T07:31:50;100895.28;;;20.89;43.16
14204;BME280;7185;51.854;6.622;2022-09-03T07:34:23;100898.47;;;21.26;43.37
14204;BME280;7185;51.854;6.622;2022-09-03T07:36:57;100899.34;;;21.57;42.75
14204;BME280;7185;51.854;6.622;2022-09-03T07:39:28;100901.56;;;21.79;41.95
14204;BME280;7185;51.854;6.622;2022-09-03T07:42:00;100896.81;;;22.13;41.53
14204;BME280;7185;51.854;6.622;2022-09-03T07:44:31;100892.94;;;22.48;41.22
14204;BME280;7185;51.854;6.622;2022-09-03T07:47:03;100890.97;;;22.79;40.01
14204;BME280;7185;51.854;6.622;2022-09-03T07:49:37;100888.50;;;23.16;39.23
14204;BME280;7185;51.854;6.622;2022-09-03T07:52:09;100885.56;;;22.94;38.83
14204;BME280;7185;51.854;6.622;2022-09-03T07:54:40;100889.00;;;23.23;38.36
14204;BME280;7185;51.854;6.622;2022-09-03T07:57:13;100876.81;;;23.32;38.64
14204;BME280;7185;51.854;6.622;2022-09-03T07:59:45;100884.13;;;23.81;38.35
14204;BME280;7185;51.854;6.622;2022-09-03T08:02:17;100885.88;;;24.08;37.02
14204;BME280;7185;51.854;6.622;2022-09-03T08:04:50;100879.41;;;24.24;36.57
14204;BME280;7185;51.854;6.622;2022-09-03T08:07:21;100885.97;;;24.57;35.88
14204;BME280;7185;51.854;6.622;2022-09-03T08:09:53;100880.22;;;24.50;35.54
14204;BME280;7185;51.854;6.622;2022-09-03T08:12:25;100880.50;;;24.71;35.13
14204;BME280;7185;51.854;6.622;2022-09-03T08:14:57;100879.97;;;24.53;35.35
14204;BME280;7185;51.854;6.622;2022-09-03T08:17:28;100879.50;;;24.85;35.50
14204;BME280;7185;51.854;6.622;2022-09-03T08:20:02;100889.78;;;25.27;35.35
14204;BME280;7185;51.854;6.622;2022-09-03T08:22:34;100880.09;;;25.49;34.23
14204;BME280;7185;51.854;6.622;2022-09-03T08:25:07;100881.03;;;25.83;33.50
14204;BME280;7185;51.854;6.622;2022-09-03T08:27:38;100885.44;;;26.30;33.14
14204;BME280;7185;51.854;6.622;2022-09-03T08:30:10;100885.06;;;25.89;33.50
14204;BME280;7185;51.854;6.622;2022-09-03T08:32:42;100883.16;;;26.14;32.90
14204;BME280;7185;51.854;6.622;2022-09-03T08:35:15;100888.13;;;26.52;32.58
14204;BME280;7185;51.854;6.622;2022-09-03T08:37:47;100888.25;;;26.51;32.46
14204;BME280;7185;51.854;6.622;2022-09-03T08:40:20;100888.31;;;26.72;32.29
14204;BME280;7185;51.854;6.622;2022-09-03T08:43:02;100893.16;;;26.23;32.32
14204;BME280;7185;51.854;6.622;2022-09-03T08:45:37;100895.25;;;25.50;33.37
14204;BME280;7185;51.854;6.622;2022-09-03T08:48:13;100884.28;;;25.53;33.48
14204;BME280;7185;51.854;6.622;2022-09-03T08:50:50;100886.63;;;25.57;33.42
14204;BME280;7185;51.854;6.622;2022-09-03T08:53:34;100886.09;;;26.22;33.53
14204;BME280;7185;51.854;6.622;2022-09-03T08:56:11;100889.31;;;26.71;32.51
14204;BME280;7185;51.854;6.622;2022-09-03T08:58:45;100881.25;;;27.15;32.25
14204;BME280;7185;51.854;6.622;2022-09-03T09:01:25;100885.56;;;27.60;30.68
14204;BME280;7185;51.854;6.622;2022-09-03T09:04:09;100882.81;;;27.17;31.19
14204;BME280;7185;51.854;6.622;2022-09-03T09:06:51;100887.47;;;26.71;31.85
14204;BME280;7185;51.854;6.622;2022-09-03T09:09:30;100879.53;;;27.14;32.27
14204;BME280;7185;51.854;6.622;2022-09-03T09:12:15;100885.78;;;27.35;31.64
14204;BME280;7185;51.854;6.622;2022-09-03T09:15:06;100887.22;;;27.18;31.99
14204;BME280;7185;51.854;6.622;2022-09-03T09:17:50;100885.41;;;27.40;31.54
14204;BME280;7185;51.854;6.622;2022-09-03T09:20:33;100884.31;;;27.95;30.91
14204;BME280;7185;51.854;6.622;2022-09-03T09:23:10;100879.72;;;27.86;30.33
14204;BME280;7185;51.854;6.622;2022-09-03T09:25:47;100877.59;;;28.51;30.31
14204;BME280;7185;51.854;6.622;2022-09-03T09:28:21;100875.94;;;28.19;29.67
14204;BME280;7185;51.854;6.622;2022-09-03T09:30:54;100878.97;;;28.05;30.07
14204;BME280;7185;51.854;6.622;2022-09-03T09:33:29;100870.81;;;28.67;29.67
14204;BME280;7185;51.854;6.622;2022-09-03T09:36:04;100873.84;;;28.93;29.57
14204;BME280;7185;51.854;6.622;2022-09-03T09:38:39;100870.22;;;29.81;28.64
14204;BME280;7185;51.854;6.622;2022-09-03T09:41:12;100869.28;;;30.00;28.09
14204;BME280;7185;51.854;6.622;2022-09-03T09:43:45;100869.91;;;29.84;27.77
14204;BME280;7185;51.854;6.622;2022-09-03T09:46:20;100871.78;;;30.21;27.68
14204;BME280;7185;51.854;6.622;2022-09-03T09:48:54;100864.91;;;29.99;27.13
14204;BME280;7185;51.854;6.622;2022-09-03T09:51:28;100870.91;;;30.20;27.39
14204;BME280;7185;51.854;6.622;2022-09-03T09:54:07;100870.22;;;29.71;27.68
14204;BME280;7185;51.854;6.622;2022-09-03T09:56:43;100871.88;;;28.85;29.51
14204;BME280;7185;51.854;6.622;2022-09-03T09:59:18;100869.88;;;29.26;28.75
14204;BME280;7185;51.854;6.622;2022-09-03T10:01:50;100873.94;;;29.70;28.31
14204;BME280;7185;51.854;6.622;2022-09-03T10:04:23;100866.75;;;29.88;27.71
14204;BME280;7185;51.854;6.622;2022-09-03T10:07:02;100876.97;;;29.28;28.48
14204;BME280;7185;51.854;6.622;2022-09-03T10:09:36;100875.53;;;29.43;28.89
14204;BME280;7185;51.854;6.622;2022-09-03T10:12:12;100876.53;;;29.52;28.79
14204;BME280;7185;51.854;6.622;2022-09-03T10:14:54;100869.22;;;29.92;27.96
14204;BME280;7185;51.854;6.622;2022-09-03T10:17:30;100859.06;;;30.49;26.92
14204;BME280;7185;51.854;6.622;2022-09-03T10:20:10;100867.47;;;30.74;27.50
14204;BME280;7185;51.854;6.622;2022-09-03T10:23:05;100864.94;;;30.73;27.09
14204;BME280;7185;51.854;6.622;2022-09-03T10:25:46;100860.28;;;30.37;27.87
14204;BME280;7185;51.854;6.622;2022-09-03T10:28:25;100857.91;;;30.62;26.93
14204;BME280;7185;51.854;6.622;2022-09-03T10:31:28;100862.69;;;31.04;27.04
14204;BME280;7185;51.854;6.622;2022-09-03T10:34:09;100858.28;;;30.85;26.56
14204;BME280;7185;51.854;6.622;2022-09-03T10:36:52;100870.03;;;29.92;27.61
14204;BME280;7185;51.854;6.622;2022-09-03T10:39:37;100865.44;;;29.55;28.27
14204;BME280;7185;51.854;6.622;2022-09-03T10:42:38;100854.63;;;29.55;28.41
14204;BME280;7185;51.854;6.622;2022-09-03T10:45:22;100853.25;;;30.44;27.98
14204;BME280;7185;51.854;6.622;2022-09-03T10:48:12;100860.59;;;30.62;27.29
14204;BME280;7185;51.854;6.622;2022-09-03T10:50:50;100853.94;;;30.56;27.10
14204;BME280;7185;51.854;6.622;2022-09-03T10:53:54;100843.84;;;31.39;26.85
14204;BME280;7185;51.854;6.622;2022-09-03T10:56:53;100834.25;;;32.48;26.05
14204;BME280;7185;51.854;6.622;2022-09-03T10:59:41;100851.38;;;31.53;26.35
14204;BME280;7185;51.854;6.622;2022-09-03T11:02:32;100845.06;;;31.18;26.54
14204;BME280;7185;51.854;6.622;2022-09-03T11:05:10;100850.09;;;31.92;26.01
14204;BME280;7185;51.854;6.622;2022-09-03T11:07:48;100848.28;;;31.22;26.25
14204;BME280;7185;51.854;6.622;2022-09-03T11:10:27;100842.81;;;32.27;26.52
14204;BME280;7185;51.854;6.622;2022-09-03T11:13:05;100842.28;;;32.83;25.10
14204;BME280;7185;51.854;6.622;2022-09-03T11:15:45;100832.25;;;33.08;24.45
14204;BME280;7185;51.854;6.622;2022-09-03T11:18:26;100828.50;;;33.50;24.41
14204;BME280;7185;51.854;6.622;2022-09-03T11:21:08;100832.19;;;32.50;25.42
14204;BME280;7185;51.854;6.622;2022-09-03T11:23:57;100829.06;;;32.80;25.39
14204;BME280;7185;51.854;6.622;2022-09-03T11:27:51;100828.72;;;33.08;24.60
14204;BME280;7185;51.854;6.622;2022-09-03T11:30:34;100824.34;;;33.71;24.34
14204;BME280;7185;51.854;6.622;2022-09-03T11:33:32;100816.19;;;33.79;24.22
14204;BME280;7185;51.854;6.622;2022-09-03T11:36:20;100829.00;;;33.54;24.58
14204;BME280;7185;51.854;6.622;2022-09-03T11:38:53;100826.06;;;31.97;25.76
14204;BME280;7185;51.854;6.622;2022-09-03T11:41:26;100812.31;;;31.90;25.66
14204;BME280;7185;51.854;6.622;2022-09-03T11:44:19;100809.59;;;32.33;25.92
14204;BME280;7185;51.854;6.622;2022-09-03T11:46:54;100820.72;;;33.22;24.92
14204;BME280;7185;51.854;6.622;2022-09-03T11:49:30;100822.88;;;33.52;24.55
14204;BME280;7185;51.854;6.622;2022-09-03T11:52:29;100813.72;;;33.45;24.92
14204;BME280;7185;51.854;6.622;2022-09-03T11:55:03;100815.44;;;34.02;23.79
14204;BME280;7185;51.854;6.622;2022-09-03T11:57:51;100810.31;;;34.39;24.22
14204;BME280;7185;51.854;6.622;2022-09-03T12:00:48;100809.84;;;35.05;23.19
14204;BME280;7185;51.854;6.622;2022-09-03T12:03:42;100812.41;;;34.60;23.50
14204;BME280;7185;51.854;6.622;2022-09-03T12:13:24;100798.66;;;33.82;23.63
14204;BME280;7185;51.854;6.622;2022-09-03T12:16:37;100802.50;;;33.56;24.23
14204;BME280;7185;51.854;6.622;2022-09-03T12:19:18;100800.34;;;33.83;24.68
14204;BME280;7185;51.854;6.622;2022-09-03T12:22:05;100798.72;;;34.45;23.78
14204;BME280;7185;51.854;6.622;2022-09-03T12:27:47;100793.78;;;34.95;23.03
14204;BME280;7185;51.854;6.622;2022-09-03T12:30:35;100795.53;;;34.88;23.05
14204;BME280;7185;51.854;6.622;2022-09-03T12:33:08;100797.34;;;33.78;24.45
14204;BME280;7185;51.854;6.622;2022-09-03T12:35:43;100797.47;;;33.93;23.97
14204;BME280;7185;51.854;6.622;2022-09-03T12:38:27;100793.56;;;34.19;23.26
14204;BME280;7185;51.854;6.622;2022-09-03T12:44:11;100778.81;;;36.26;21.76
14204;BME280;7185;51.854;6.622;2022-09-03T12:47:03;100782.53;;;36.40;21.53
14204;BME280;7185;51.854;6.622;2022-09-03T12:49:45;100780.38;;;36.78;21.29
14204;BME280;7185;51.854;6.622;2022-09-03T12:52:36;100782.03;;;37.58;20.49
14204;BME280;7185;51.854;6.622;2022-09-03T12:55:46;100776.63;;;37.71;20.89
14204;BME280;7185;51.854;6.622;2022-09-03T12:58:31;100780.97;;;37.24;20.33
14204;BME280;7185;51.854;6.622;2022-09-03T13:01:15;100779.47;;;36.71;20.88
14204;BME280;7185;51.854;6.622;2022-09-03T13:04:07;100779.09;;;36.96;20.79
14204;BME280;7185;51.854;6.622;2022-09-03T13:06:57;100782.00;;;36.94;20.67
14204;BME280;7185;51.854;6.622;2022-09-03T13:09:36;100776.31;;;37.18;20.66
14204;BME280;7185;51.854;6.622;2022-09-03T13:12:20;100764.38;;;36.32;21.03
14204;BME280;7185;51.854;6.622;2022-09-03T13:14:52;100767.91;;;36.11;21.21
14204;BME280;7185;51.854;6.622;2022-09-03T13:17:42;100769.47;;;35.98;21.29
14204;BME280;7185;51.854;6.622;2022-09-03T13:20:36;100768.34;;;36.29;20.98
14204;BME280;7185;51.854;6.622;2022-09-03T13:23:31;100765.47;;;36.37;21.33
14204;BME280;7185;51.854;6.622;2022-09-03T13:30:01;100767.94;;;37.61;20.82
14204;BME280;7185;51.854;6.622;2022-09-03T13:32:55;100767.94;;;37.61;20.82
14204;BME280;7185;51.854;6.622;2022-09-03T13:36:15;100769.50;;;37.77;19.63
14204;BME280;7185;51.854;6.622;2022-09-03T13:38:42;100768.72;;;37.90;19.86
14204;BME280;7185;51.854;6.622;2022-09-03T13:41:26;100768.88;;;36.40;21.17
14204;BME280;7185;51.854;6.622;2022-09-03T13:44:09;100774.03;;;35.46;21.78
14204;BME280;7185;51.854;6.622;2022-09-03T13:46:53;100772.81;;;34.95;22.95
14204;BME280;7185;51.854;6.622;2022-09-03T13:49:35;100761.00;;;35.18;22.78
14204;BME280;7185;51.854;6.622;2022-09-03T13:53:03;100766.00;;;35.15;23.10
14204;BME280;7185;51.854;6.622;2022-09-03T13:55:53;100760.06;;;36.01;21.92
14204;BME280;7185;51.854;6.622;2022-09-03T13:58:53;100759.19;;;36.80;21.28
14204;BME280;7185;51.854;6.622;2022-09-03T14:01:57;100761.78;;;37.45;20.14
14204;BME280;7185;51.854;6.622;2022-09-03T14:04:43;100766.88;;;36.48;21.60
14204;BME280;7185;51.854;6.622;2022-09-03T14:07:20;100758.22;;;36.45;21.00
14204;BME280;7185;51.854;6.622;2022-09-03T14:10:01;100751.56;;;36.76;21.12
14204;BME280;7185;51.854;6.622;2022-09-03T14:12:39;100758.38;;;36.87;20.61
14204;BME280;7185;51.854;6.622;2022-09-03T14:15:19;100755.16;;;36.33;21.50
14204;BME280;7185;51.854;6.622;2022-09-03T14:17:59;100754.69;;;36.94;21.01
14204;BME280;7185;51.854;6.622;2022-09-03T14:20:41;100764.00;;;36.57;21.58
14204;BME280;7185;51.854;6.622;2022-09-03T14:23:26;100756.81;;;36.34;21.45
14204;BME280;7185;51.854;6.622;2022-09-03T14:26:03;100759.72;;;35.74;21.94
14204;BME280;7185;51.854;6.622;2022-09-03T14:28:40;100769.81;;;34.90;22.80
14204;BME280;7185;51.854;6.622;2022-09-03T14:31:21;100764.19;;;34.69;23.04